sensor_id;sensor_type;location;lat;lon;timestamp;temperature;humidity
19389;DHT22;9830;41.876;23.474;2022-08-11T00:01:53;16.00;99.90
19389;DHT22;9830;41.876;23.474;2022-08-11T00:04:24;16.00;99.90
19389;DHT22;9830;41.876;23.474;2022-08-11T00:06:51;15.90;99.90
19389;DHT22;9830;41.876;23.474;2022-08-11T00:09:22;15.80;99.90
19389;DHT22;9830;41.876;23.474;2022-08-11T00:11:57;15.70;99.90
19389;DHT22;9830;41.876;23.474;2022-08-11T00:14:25;15.70;99.90
19389;DHT22;9830;41.876;23.474;2022-08-11T00:17:00;15.70;99.90
19389;DHT22;9830;41.876;23.474;2022-08-11T00:19:33;15.80;99.90
19389;DHT22;9830;41.876;23.474;2022-08-11T00:22:00;15.80;99.90
19389;DHT22;9830;41.876;23.474;2022-08-11T00:24:33;15.80;99.90
19389;DHT22;9830;41.876;23.474;2022-08-11T00:27:00;15.80;99.90
19389;DHT22;9830;41.876;23.474;2022-08-11T00:29:26;15.90;99.90
19389;DHT22;9830;41.876;23.474;2022-08-11T00:31:53;15.90;99.90
19389;DHT22;9830;41.876;23.474;2022-08-11T00:34:23;15.90;99.90
19389;DHT22;9830;41.876;23.474;2022-08-11T00:36:53;15.90;99.90
19389;DHT22;9830;41.876;23.474;2022-08-11T00:39:21;16.10;99.90
19389;DHT22;9830;41.876;23.474;2022-08-11T00:50:23;16.10;99.90
19389;DHT22;9830;41.876;23.474;2022-08-11T01:12:55;16.40;99.90
19389;DHT22;9830;41.876;23.474;2022-08-11T01:44:01;16.30;99.90
19389;DHT22;9830;41.876;23.474;2022-08-11T01:49:42;16.30;99.90
19389;DHT22;9830;41.876;23.474;2022-08-11T01:52:16;16.10;99.90
19389;DHT22;9830;41.876;23.474;2022-08-11T01:55:11;16.00;99.90
19389;DHT22;9830;41.876;23.474;2022-08-11T02:00:24;15.90;99.90
19389;DHT22;9830;41.876;23.474;2022-08-11T02:03:00;15.90;99.90
19389;DHT22;9830;41.876;23.474;2022-08-11T02:05:51;15.90;99.90
19389;DHT22;9830;41.876;23.474;2022-08-11T02:08:46;15.90;99.90
19389;DHT22;9830;41.876;23.474;2022-08-11T02:11:26;16.00;99.90
19389;DHT22;9830;41.876;23.474;2022-08-11T02:14:28;16.00;99.90
19389;DHT22;9830;41.876;23.474;2022-08-11T02:17:16;16.00;99.90
19389;DHT22;9830;41.876;23.474;2022-08-11T02:23:30;15.90;99.90
19389;DHT22;9830;41.876;23.474;2022-08-11T02:26:17;15.90;99.90
19389;DHT22;9830;41.876;23.474;2022-08-11T02:29:24;15.80;99.90
19389;DHT22;9830;41.876;23.474;2022-08-11T02:32:06;15.80;99.90
19389;DHT22;9830;41.876;23.474;2022-08-11T02:35:25;15.80;99.90
19389;DHT22;9830;41.876;23.474;2022-08-11T02:40:58;15.60;99.90
19389;DHT22;9830;41.876;23.474;2022-08-11T02:46:40;15.60;99.90
19389;DHT22;9830;41.876;23.474;2022-08-11T02:49:40;15.60;99.90
19389;DHT22;9830;41.876;23.474;2022-08-11T02:52:41;15.60;99.90
19389;DHT22;9830;41.876;23.474;2022-08-11T02:55:18;15.50;99.90
19389;DHT22;9830;41.876;23.474;2022-08-11T02:57:54;15.50;99.90
19389;DHT22;9830;41.876;23.474;2022-08-11T03:00:22;15.40;99.90
19389;DHT22;9830;41.876;23.474;2022-08-11T03:03:28;15.40;99.90
19389;DHT22;9830;41.876;23.474;2022-08-11T03:09:04;15.30;99.90
19389;DHT22;9830;41.876;23.474;2022-08-11T03:15:02;15.30;99.90
19389;DHT22;9830;41.876;23.474;2022-08-11T03:20:50;15.40;99.90
19389;DHT22;9830;41.876;23.474;2022-08-11T03:29:48;15.20;99.90
19389;DHT22;9830;41.876;23.474;2022-08-11T03:32:31;15.10;99.90
19389;DHT22;9830;41.876;23.474;2022-08-11T03:35:01;15.00;99.90
19389;DHT22;9830;41.876;23.474;2022-08-11T03:46:11;14.60;99.90
19389;DHT22;9830;41.876;23.474;2022-08-11T03:48:55;14.50;99.90
19389;DHT22;9830;41.876;23.474;2022-08-11T03:51:44;14.50;99.90
19389;DHT22;9830;41.876;23.474;2022-08-11T03:54:47;14.50;99.90
19389;DHT22;9830;41.876;23.474;2022-08-11T04:09:41;14.40;99.90
19389;DHT22;9830;41.876;23.474;2022-08-11T04:34:43;20.70;88.90
19389;DHT22;9830;41.876;23.474;2022-08-11T04:38:04;20.60;87.10
19389;DHT22;9830;41.876;23.474;2022-08-11T04:55:35;22.00;78.30
19389;DHT22;9830;41.876;23.474;2022-08-11T05:01:23;22.40;76.20
19389;DHT22;9830;41.876;23.474;2022-08-11T05:10:18;23.70;67.50
19389;DHT22;9830;41.876;23.474;2022-08-11T05:12:56;24.30;66.80
19389;DHT22;9830;41.876;23.474;2022-08-11T05:15:53;23.60;66.70
19389;DHT22;9830;41.876;23.474;2022-08-11T05:18:49;24.30;66.50
19389;DHT22;9830;41.876;23.474;2022-08-11T05:21:35;26.80;57.20
19389;DHT22;9830;41.876;23.474;2022-08-11T05:24:46;25.70;58.90
19389;DHT22;9830;41.876;23.474;2022-08-11T05:28:30;26.40;56.30
19389;DHT22;9830;41.876;23.474;2022-08-11T05:30:48;27.40;54.30
19389;DHT22;9830;41.876;23.474;2022-08-11T05:33:48;27.70;52.80
19389;DHT22;9830;41.876;23.474;2022-08-11T05:36:36;27.50;53.00
19389;DHT22;9830;41.876;23.474;2022-08-11T05:39:13;28.10;51.40
19389;DHT22;9830;41.876;23.474;2022-08-11T05:42:00;26.90;53.00
19389;DHT22;9830;41.876;23.474;2022-08-11T05:44:46;25.00;57.50
19389;DHT22;9830;41.876;23.474;2022-08-11T07:13:13;33.10;38.00
19389;DHT22;9830;41.876;23.474;2022-08-11T07:15:59;35.90;35.00
19389;DHT22;9830;41.876;23.474;2022-08-11T07:18:28;36.40;32.20
19389;DHT22;9830;41.876;23.474;2022-08-11T07:21:34;35.80;33.40
19389;DHT22;9830;41.876;23.474;2022-08-11T07:24:25;35.20;34.20
19389;DHT22;9830;41.876;23.474;2022-08-11T07:27:17;34.90;35.60
19389;DHT22;9830;41.876;23.474;2022-08-11T07:30:07;36.30;32.40
19389;DHT22;9830;41.876;23.474;2022-08-11T07:32:38;35.90;32.20
19389;DHT22;9830;41.876;23.474;2022-08-11T07:35:09;34.80;34.70
19389;DHT22;9830;41.876;23.474;2022-08-11T07:37:41;35.00;34.70
19389;DHT22;9830;41.876;23.474;2022-08-11T07:40:08;34.60;34.30
19389;DHT22;9830;41.876;23.474;2022-08-11T07:42:36;35.20;34.80
19389;DHT22;9830;41.876;23.474;2022-08-11T07:45:04;35.90;33.80
19389;DHT22;9830;41.876;23.474;2022-08-11T07:47:49;36.30;34.00
19389;DHT22;9830;41.876;23.474;2022-08-11T07:50:35;36.70;32.10
19389;DHT22;9830;41.876;23.474;2022-08-11T07:53:23;36.10;32.20
19389;DHT22;9830;41.876;23.474;2022-08-11T07:55:49;36.30;32.00
19389;DHT22;9830;41.876;23.474;2022-08-11T07:58:19;35.60;32.90
19389;DHT22;9830;41.876;23.474;2022-08-11T08:01:03;36.00;33.20
19389;DHT22;9830;41.876;23.474;2022-08-11T08:03:48;35.60;32.60
19389;DHT22;9830;41.876;23.474;2022-08-11T08:06:33;37.70;30.20
19389;DHT22;9830;41.876;23.474;2022-08-11T08:09:20;36.90;29.90
19389;DHT22;9830;41.876;23.474;2022-08-11T08:12:07;37.20;28.80
19389;DHT22;9830;41.876;23.474;2022-08-11T08:14:53;37.50;28.40
19389;DHT22;9830;41.876;23.474;2022-08-11T08:17:40;37.80;28.60
19389;DHT22;9830;41.876;23.474;2022-08-11T08:20:24;36.50;30.30
19389;DHT22;9830;41.876;23.474;2022-08-11T08:22:55;37.20;29.80
19389;DHT22;9830;41.876;23.474;2022-08-11T08:25:30;37.20;30.60
19389;DHT22;9830;41.876;23.474;2022-08-11T08:27:58;37.30;29.90
19389;DHT22;9830;41.876;23.474;2022-08-11T08:30:26;36.70;30.00
19389;DHT22;9830;41.876;23.474;2022-08-11T08:33:22;35.20;29.90
19389;DHT22;9830;41.876;23.474;2022-08-11T08:35:51;33.20;34.00
19389;DHT22;9830;41.876;23.474;2022-08-11T08:38:36;33.20;35.00
19389;DHT22;9830;41.876;23.474;2022-08-11T08:41:02;32.20;35.70
19389;DHT22;9830;41.876;23.474;2022-08-11T08:43:29;32.30;35.80
19389;DHT22;9830;41.876;23.474;2022-08-11T08:45:56;32.10;36.00
19389;DHT22;9830;41.876;23.474;2022-08-11T08:48:23;32.10;36.60
19389;DHT22;9830;41.876;23.474;2022-08-11T08:50:59;33.40;34.40
19389;DHT22;9830;41.876;23.474;2022-08-11T08:53:49;33.20;34.40
19389;DHT22;9830;41.876;23.474;2022-08-11T08:56:15;34.20;32.40
19389;DHT22;9830;41.876;23.474;2022-08-11T08:58:46;33.80;33.50
19389;DHT22;9830;41.876;23.474;2022-08-11T09:01:14;32.50;34.20
19389;DHT22;9830;41.876;23.474;2022-08-11T09:03:41;32.80;34.60
19389;DHT22;9830;41.876;23.474;2022-08-11T09:06:08;33.70;33.00
19389;DHT22;9830;41.876;23.474;2022-08-11T09:08:35;33.60;33.00
19389;DHT22;9830;41.876;23.474;2022-08-11T09:11:03;34.10;32.30
19389;DHT22;9830;41.876;23.474;2022-08-11T09:13:48;34.50;31.70
19389;DHT22;9830;41.876;23.474;2022-08-11T09:16:15;34.70;31.00
19389;DHT22;9830;41.876;23.474;2022-08-11T09:18:41;33.60;32.80
19389;DHT22;9830;41.876;23.474;2022-08-11T09:21:15;32.50;34.80
19389;DHT22;9830;41.876;23.474;2022-08-11T09:23:42;32.10;34.10
19389;DHT22;9830;41.876;23.474;2022-08-11T09:26:27;31.70;34.10
19389;DHT22;9830;41.876;23.474;2022-08-11T09:29:12;32.30;33.10
19389;DHT22;9830;41.876;23.474;2022-08-11T09:31:39;32.40;34.20
19389;DHT22;9830;41.876;23.474;2022-08-11T09:34:05;34.10;35.50
19389;DHT22;9830;41.876;23.474;2022-08-11T09:36:33;36.30;32.90
19389;DHT22;9830;41.876;23.474;2022-08-11T09:39:17;37.20;30.30
19389;DHT22;9830;41.876;23.474;2022-08-11T09:42:02;37.00;30.60
19389;DHT22;9830;41.876;23.474;2022-08-11T09:44:31;35.80;31.50
19389;DHT22;9830;41.876;23.474;2022-08-11T09:47:25;35.70;31.30
19389;DHT22;9830;41.876;23.474;2022-08-11T09:49:58;34.30;32.60
19389;DHT22;9830;41.876;23.474;2022-08-11T09:52:29;33.40;33.90
19389;DHT22;9830;41.876;23.474;2022-08-11T09:54:56;33.30;33.60
19389;DHT22;9830;41.876;23.474;2022-08-11T09:57:24;32.80;34.00
19389;DHT22;9830;41.876;23.474;2022-08-11T10:00:11;32.40;34.80
19389;DHT22;9830;41.876;23.474;2022-08-11T10:02:49;32.20;35.90
19389;DHT22;9830;41.876;23.474;2022-08-11T10:05:18;31.50;34.40
19389;DHT22;9830;41.876;23.474;2022-08-11T10:08:04;31.20;35.10
19389;DHT22;9830;41.876;23.474;2022-08-11T10:10:35;30.90;35.60
19389;DHT22;9830;41.876;23.474;2022-08-11T10:13:05;31.50;35.90
19389;DHT22;9830;41.876;23.474;2022-08-11T10:15:32;31.60;37.10
19389;DHT22;9830;41.876;23.474;2022-08-11T10:18:09;31.60;38.10
19389;DHT22;9830;41.876;23.474;2022-08-11T10:21:00;31.40;37.90
19389;DHT22;9830;41.876;23.474;2022-08-11T10:23:29;31.60;40.10
19389;DHT22;9830;41.876;23.474;2022-08-11T10:26:13;31.90;40.40
19389;DHT22;9830;41.876;23.474;2022-08-11T10:28:59;32.50;40.60
19389;DHT22;9830;41.876;23.474;2022-08-11T10:31:25;33.10;38.20
19389;DHT22;9830;41.876;23.474;2022-08-11T10:34:10;33.70;37.90
19389;DHT22;9830;41.876;23.474;2022-08-11T10:36:38;34.20;36.30
19389;DHT22;9830;41.876;23.474;2022-08-11T10:39:08;34.60;35.00
19389;DHT22;9830;41.876;23.474;2022-08-11T10:41:36;34.90;30.60
19389;DHT22;9830;41.876;23.474;2022-08-11T10:44:21;34.20;33.00
19389;DHT22;9830;41.876;23.474;2022-08-11T10:46:47;33.70;34.50
19389;DHT22;9830;41.876;23.474;2022-08-11T10:49:32;34.10;35.80
19389;DHT22;9830;41.876;23.474;2022-08-11T10:51:58;34.30;32.50
19389;DHT22;9830;41.876;23.474;2022-08-11T10:54:44;33.50;30.60
19389;DHT22;9830;41.876;23.474;2022-08-11T10:57:29;31.90;33.00
19389;DHT22;9830;41.876;23.474;2022-08-11T11:00:15;31.10;33.60
19389;DHT22;9830;41.876;23.474;2022-08-11T11:02:42;29.90;37.50
19389;DHT22;9830;41.876;23.474;2022-08-11T11:05:11;29.10;41.20
19389;DHT22;9830;41.876;23.474;2022-08-11T11:07:43;28.30;42.80
19389;DHT22;9830;41.876;23.474;2022-08-11T11:10:11;27.70;45.40
19389;DHT22;9830;41.876;23.474;2022-08-11T11:15:22;25.80;50.90
19389;DHT22;9830;41.876;23.474;2022-08-11T11:18:18;24.60;57.40
19389;DHT22;9830;41.876;23.474;2022-08-11T11:29:19;22.60;76.20
19389;DHT22;9830;41.876;23.474;2022-08-11T11:36:50;22.20;88.40
19389;DHT22;9830;41.876;23.474;2022-08-11T11:39:36;21.90;89.60
19389;DHT22;9830;41.876;23.474;2022-08-11T11:42:06;21.70;89.70
19389;DHT22;9830;41.876;23.474;2022-08-11T11:44:33;21.70;88.80
19389;DHT22;9830;41.876;23.474;2022-08-11T11:47:01;21.70;90.10
19389;DHT22;9830;41.876;23.474;2022-08-11T11:49:28;21.40;91.20
19389;DHT22;9830;41.876;23.474;2022-08-11T11:51:56;21.40;91.60
19389;DHT22;9830;41.876;23.474;2022-08-11T11:54:27;21.40;94.10
19389;DHT22;9830;41.876;23.474;2022-08-11T11:56:55;21.50;93.50
19389;DHT22;9830;41.876;23.474;2022-08-11T11:59:22;21.50;95.40
19389;DHT22;9830;41.876;23.474;2022-08-11T12:02:08;21.60;95.30
19389;DHT22;9830;41.876;23.474;2022-08-11T12:04:37;21.60;96.70
19389;DHT22;9830;41.876;23.474;2022-08-11T12:07:07;21.70;99.90
19389;DHT22;9830;41.876;23.474;2022-08-11T12:16:11;21.60;99.90
19389;DHT22;9830;41.876;23.474;2022-08-11T12:18:39;21.60;99.90
19389;DHT22;9830;41.876;23.474;2022-08-11T12:21:07;21.60;99.90
19389;DHT22;9830;41.876;23.474;2022-08-11T12:23:34;21.60;99.90
19389;DHT22;9830;41.876;23.474;2022-08-11T12:26:20;21.50;99.90
19389;DHT22;9830;41.876;23.474;2022-08-11T12:29:06;21.40;99.90
19389;DHT22;9830;41.876;23.474;2022-08-11T12:31:35;20.80;95.90
19389;DHT22;9830;41.876;23.474;2022-08-11T12:34:04;20.60;96.30
19389;DHT22;9830;41.876;23.474;2022-08-11T12:36:35;20.40;94.30
19389;DHT22;9830;41.876;23.474;2022-08-11T12:39:04;20.30;95.30
19389;DHT22;9830;41.876;23.474;2022-08-11T12:41:32;20.30;96.80
19389;DHT22;9830;41.876;23.474;2022-08-11T12:44:17;20.20;94.90
19389;DHT22;9830;41.876;23.474;2022-08-11T12:47:06;19.80;95.70
19389;DHT22;9830;41.876;23.474;2022-08-11T12:49:35;19.50;95.30
19389;DHT22;9830;41.876;23.474;2022-08-11T12:52:26;19.10;97.90
19389;DHT22;9830;41.876;23.474;2022-08-11T12:55:15;19.10;99.90
19389;DHT22;9830;41.876;23.474;2022-08-11T12:58:00;19.00;98.50
19389;DHT22;9830;41.876;23.474;2022-08-11T13:00:45;18.80;98.00
19389;DHT22;9830;41.876;23.474;2022-08-11T13:03:31;18.60;97.30
19389;DHT22;9830;41.876;23.474;2022-08-11T13:06:17;18.50;99.00
19389;DHT22;9830;41.876;23.474;2022-08-11T13:08:44;18.30;99.90
19389;DHT22;9830;41.876;23.474;2022-08-11T13:11:11;18.40;99.90
19389;DHT22;9830;41.876;23.474;2022-08-11T13:13:56;18.50;99.90
19389;DHT22;9830;41.876;23.474;2022-08-11T13:16:32;18.50;99.90
19389;DHT22;9830;41.876;23.474;2022-08-11T13:19:18;18.60;99.90
19389;DHT22;9830;41.876;23.474;2022-08-11T13:21:45;18.90;99.90
19389;DHT22;9830;41.876;23.474;2022-08-11T13:24:11;18.90;99.90
19389;DHT22;9830;41.876;23.474;2022-08-11T13:26:37;19.00;99.90
19389;DHT22;9830;41.876;23.474;2022-08-11T13:29:04;18.90;99.90
19389;DHT22;9830;41.876;23.474;2022-08-11T13:31:31;19.10;99.10
19389;DHT22;9830;41.876;23.474;2022-08-11T13:33:58;19.10;99.50
19389;DHT22;9830;41.876;23.474;2022-08-11T13:36:26;19.40;98.00
19389;DHT22;9830;41.876;23.474;2022-08-11T13:38:54;19.50;99.90
19389;DHT22;9830;41.876;23.474;2022-08-11T13:41:24;19.30;99.60
19389;DHT22;9830;41.876;23.474;2022-08-11T13:44:08;19.20;97.60
19389;DHT22;9830;41.876;23.474;2022-08-11T13:46:35;19.40;99.40
19389;DHT22;9830;41.876;23.474;2022-08-11T13:49:02;19.50;99.90
19389;DHT22;9830;41.876;23.474;2022-08-11T13:51:29;19.70;99.90
19389;DHT22;9830;41.876;23.474;2022-08-11T13:54:04;19.90;99.90
19389;DHT22;9830;41.876;23.474;2022-08-11T13:56:32;19.90;99.90
19389;DHT22;9830;41.876;23.474;2022-08-11T13:59:00;20.20;98.90
19389;DHT22;9830;41.876;23.474;2022-08-11T14:01:29;20.40;97.10
19389;DHT22;9830;41.876;23.474;2022-08-11T14:04:11;20.90;95.20
19389;DHT22;9830;41.876;23.474;2022-08-11T14:06:42;21.30;92.40
19389;DHT22;9830;41.876;23.474;2022-08-11T14:09:10;21.50;86.60
19389;DHT22;9830;41.876;23.474;2022-08-11T14:11:39;21.60;91.70
19389;DHT22;9830;41.876;23.474;2022-08-11T14:14:30;21.80;93.80
19389;DHT22;9830;41.876;23.474;2022-08-11T14:17:03;22.10;91.20
19389;DHT22;9830;41.876;23.474;2022-08-11T14:19:29;22.10;90.00
19389;DHT22;9830;41.876;23.474;2022-08-11T14:21:58;21.90;92.40
19389;DHT22;9830;41.876;23.474;2022-08-11T14:24:35;21.80;91.20
19389;DHT22;9830;41.876;23.474;2022-08-11T14:27:02;21.70;93.80
19389;DHT22;9830;41.876;23.474;2022-08-11T14:29:28;21.20;96.00
19389;DHT22;9830;41.876;23.474;2022-08-11T14:32:02;21.10;97.90
19389;DHT22;9830;41.876;23.474;2022-08-11T14:34:29;21.40;96.40
19389;DHT22;9830;41.876;23.474;2022-08-11T14:37:05;21.40;97.30
19389;DHT22;9830;41.876;23.474;2022-08-11T14:39:33;21.30;96.10
19389;DHT22;9830;41.876;23.474;2022-08-11T14:42:06;21.20;94.90
19389;DHT22;9830;41.876;23.474;2022-08-11T14:44:55;21.30;94.70
19389;DHT22;9830;41.876;23.474;2022-08-11T14:47:42;21.60;94.00
19389;DHT22;9830;41.876;23.474;2022-08-11T14:50:21;21.60;94.40
19389;DHT22;9830;41.876;23.474;2022-08-11T14:52:50;21.10;94.60
19389;DHT22;9830;41.876;23.474;2022-08-11T14:55:18;20.90;96.30
19389;DHT22;9830;41.876;23.474;2022-08-11T14:58:04;20.80;96.40
19389;DHT22;9830;41.876;23.474;2022-08-11T15:00:31;20.70;96.80
19389;DHT22;9830;41.876;23.474;2022-08-11T15:02:59;20.80;96.40
19389;DHT22;9830;41.876;23.474;2022-08-11T15:05:36;20.70;96.50
19389;DHT22;9830;41.876;23.474;2022-08-11T15:08:04;20.60;95.20
19389;DHT22;9830;41.876;23.474;2022-08-11T15:10:31;20.50;95.40
19389;DHT22;9830;41.876;23.474;2022-08-11T15:12:57;20.60;95.50
19389;DHT22;9830;41.876;23.474;2022-08-11T15:15:24;20.90;95.50
19389;DHT22;9830;41.876;23.474;2022-08-11T15:18:11;21.20;94.80
19389;DHT22;9830;41.876;23.474;2022-08-11T15:20:41;21.60;93.40
19389;DHT22;9830;41.876;23.474;2022-08-11T15:23:27;21.90;92.10
19389;DHT22;9830;41.876;23.474;2022-08-11T15:26:36;22.10;91.10
19389;DHT22;9830;41.876;23.474;2022-08-11T15:29:23;22.20;85.30
19389;DHT22;9830;41.876;23.474;2022-08-11T15:32:11;22.30;84.40
19389;DHT22;9830;41.876;23.474;2022-08-11T15:34:58;22.40;86.90
19389;DHT22;9830;41.876;23.474;2022-08-11T15:37:43;22.30;80.70
19389;DHT22;9830;41.876;23.474;2022-08-11T15:40:27;22.30;83.50
19389;DHT22;9830;41.876;23.474;2022-08-11T15:43:31;22.30;85.30
19389;DHT22;9830;41.876;23.474;2022-08-11T15:46:30;22.20;88.40
19389;DHT22;9830;41.876;23.474;2022-08-11T15:49:00;22.10;87.40
19389;DHT22;9830;41.876;23.474;2022-08-11T15:51:36;22.20;83.20
19389;DHT22;9830;41.876;23.474;2022-08-11T15:54:08;22.20;81.30
19389;DHT22;9830;41.876;23.474;2022-08-11T15:56:40;22.20;81.20
19389;DHT22;9830;41.876;23.474;2022-08-11T15:59:08;22.40;79.20
19389;DHT22;9830;41.876;23.474;2022-08-11T16:01:54;22.40;78.90
19389;DHT22;9830;41.876;23.474;2022-08-11T16:04:42;22.50;77.80
19389;DHT22;9830;41.876;23.474;2022-08-11T16:07:35;22.50;80.00
19389;DHT22;9830;41.876;23.474;2022-08-11T16:10:05;22.50;73.30
19389;DHT22;9830;41.876;23.474;2022-08-11T16:13:05;22.40;72.20
19389;DHT22;9830;41.876;23.474;2022-08-11T16:15:41;22.30;74.50
19389;DHT22;9830;41.876;23.474;2022-08-11T16:18:30;22.20;77.70
19389;DHT22;9830;41.876;23.474;2022-08-11T16:21:31;22.20;79.60
19389;DHT22;9830;41.876;23.474;2022-08-11T16:23:57;21.90;79.30
19389;DHT22;9830;41.876;23.474;2022-08-11T16:26:24;21.80;82.80
19389;DHT22;9830;41.876;23.474;2022-08-11T16:28:56;21.70;81.30
19389;DHT22;9830;41.876;23.474;2022-08-11T16:31:23;21.60;83.80
19389;DHT22;9830;41.876;23.474;2022-08-11T16:33:51;21.40;91.20
19389;DHT22;9830;41.876;23.474;2022-08-11T16:36:19;21.40;93.20
19389;DHT22;9830;41.876;23.474;2022-08-11T16:39:05;21.20;94.10
19389;DHT22;9830;41.876;23.474;2022-08-11T16:41:33;21.10;95.50
19389;DHT22;9830;41.876;23.474;2022-08-11T16:44:19;21.00;96.40
19389;DHT22;9830;41.876;23.474;2022-08-11T16:47:13;21.10;96.60
19389;DHT22;9830;41.876;23.474;2022-08-11T16:49:52;20.90;94.70
19389;DHT22;9830;41.876;23.474;2022-08-11T16:52:19;20.90;93.20
19389;DHT22;9830;41.876;23.474;2022-08-11T16:54:46;20.70;93.40
19389;DHT22;9830;41.876;23.474;2022-08-11T16:57:20;20.50;95.60
19389;DHT22;9830;41.876;23.474;2022-08-11T17:00:07;20.40;96.80
19389;DHT22;9830;41.876;23.474;2022-08-11T17:02:48;20.40;97.60
19389;DHT22;9830;41.876;23.474;2022-08-11T17:05:34;20.20;97.70
19389;DHT22;9830;41.876;23.474;2022-08-11T17:08:35;20.30;97.20
19389;DHT22;9830;41.876;23.474;2022-08-11T17:11:21;20.40;97.30
19389;DHT22;9830;41.876;23.474;2022-08-11T17:14:13;20.20;99.10
19389;DHT22;9830;41.876;23.474;2022-08-11T17:16:41;20.10;99.90
19389;DHT22;9830;41.876;23.474;2022-08-11T17:19:21;20.00;99.90
19389;DHT22;9830;41.876;23.474;2022-08-11T17:21:49;19.90;99.90
19389;DHT22;9830;41.876;23.474;2022-08-11T17:24:39;19.90;99.90
19389;DHT22;9830;41.876;23.474;2022-08-11T17:27:07;19.70;99.90
19389;DHT22;9830;41.876;23.474;2022-08-11T17:30:03;19.60;99.90
19389;DHT22;9830;41.876;23.474;2022-08-11T17:32:32;19.50;99.90
19389;DHT22;9830;41.876;23.474;2022-08-11T17:35:21;19.50;99.90
19389;DHT22;9830;41.876;23.474;2022-08-11T17:40:31;19.30;99.90
19389;DHT22;9830;41.876;23.474;2022-08-11T17:42:57;19.20;99.90
19389;DHT22;9830;41.876;23.474;2022-08-11T17:45:46;19.10;99.90
19389;DHT22;9830;41.876;23.474;2022-08-11T17:48:34;19.00;99.90
19389;DHT22;9830;41.876;23.474;2022-08-11T17:51:05;18.90;99.90
19389;DHT22;9830;41.876;23.474;2022-08-11T17:53:41;18.80;99.90
19389;DHT22;9830;41.876;23.474;2022-08-11T17:56:28;18.60;99.90
19389;DHT22;9830;41.876;23.474;2022-08-11T17:59:14;18.50;99.90
19389;DHT22;9830;41.876;23.474;2022-08-11T18:02:01;18.40;99.90
19389;DHT22;9830;41.876;23.474;2022-08-11T18:04:49;18.40;99.90
19389;DHT22;9830;41.876;23.474;2022-08-11T18:07:19;18.20;99.90
19389;DHT22;9830;41.876;23.474;2022-08-11T18:10:05;18.00;99.90
19389;DHT22;9830;41.876;23.474;2022-08-11T18:12:51;18.00;99.90
19389;DHT22;9830;41.876;23.474;2022-08-11T18:15:41;17.80;99.90
19389;DHT22;9830;41.876;23.474;2022-08-11T18:18:26;17.70;99.90
19389;DHT22;9830;41.876;23.474;2022-08-11T18:21:14;17.60;99.90
19389;DHT22;9830;41.876;23.474;2022-08-11T18:24:04;17.60;99.90
19389;DHT22;9830;41.876;23.474;2022-08-11T18:26:51;17.50;99.90
19389;DHT22;9830;41.876;23.474;2022-08-11T18:29:39;17.50;99.90
19389;DHT22;9830;41.876;23.474;2022-08-11T18:32:26;17.50;99.90
19389;DHT22;9830;41.876;23.474;2022-08-11T18:35:13;17.50;99.90
19389;DHT22;9830;41.876;23.474;2022-08-11T18:37:59;17.50;99.90
19389;DHT22;9830;41.876;23.474;2022-08-11T18:40:46;17.40;99.90
19389;DHT22;9830;41.876;23.474;2022-08-11T18:43:32;17.30;99.90
19389;DHT22;9830;41.876;23.474;2022-08-11T18:46:18;17.30;99.90
19389;DHT22;9830;41.876;23.474;2022-08-11T18:49:14;17.30;99.90
19389;DHT22;9830;41.876;23.474;2022-08-11T18:52:02;17.20;99.90
19389;DHT22;9830;41.876;23.474;2022-08-11T18:54:48;17.10;99.90
19389;DHT22;9830;41.876;23.474;2022-08-11T18:57:37;17.10;99.90
19389;DHT22;9830;41.876;23.474;2022-08-11T19:00:22;17.00;99.90
19389;DHT22;9830;41.876;23.474;2022-08-11T19:03:10;17.00;99.90
19389;DHT22;9830;41.876;23.474;2022-08-11T19:05:57;16.90;99.90
19389;DHT22;9830;41.876;23.474;2022-08-11T19:08:47;17.00;99.90
19389;DHT22;9830;41.876;23.474;2022-08-11T19:11:32;17.10;99.90
19389;DHT22;9830;41.876;23.474;2022-08-11T19:14:18;17.20;99.90
19389;DHT22;9830;41.876;23.474;2022-08-11T19:17:05;17.10;99.90
19389;DHT22;9830;41.876;23.474;2022-08-11T19:19:51;17.00;99.90
19389;DHT22;9830;41.876;23.474;2022-08-11T19:22:38;17.00;99.90
19389;DHT22;9830;41.876;23.474;2022-08-11T19:25:23;17.00;99.90
19389;DHT22;9830;41.876;23.474;2022-08-11T19:28:08;17.00;99.90
19389;DHT22;9830;41.876;23.474;2022-08-11T19:30:53;17.10;99.90
19389;DHT22;9830;41.876;23.474;2022-08-11T19:33:39;17.10;99.90
19389;DHT22;9830;41.876;23.474;2022-08-11T19:36:25;17.00;99.90
19389;DHT22;9830;41.876;23.474;2022-08-11T19:39:11;17.10;99.90
19389;DHT22;9830;41.876;23.474;2022-08-11T19:41:57;17.00;99.90
19389;DHT22;9830;41.876;23.474;2022-08-11T19:44:42;17.00;99.90
19389;DHT22;9830;41.876;23.474;2022-08-11T19:47:27;16.80;99.90
19389;DHT22;9830;41.876;23.474;2022-08-11T19:50:13;16.60;99.90
19389;DHT22;9830;41.876;23.474;2022-08-11T19:53:00;16.60;99.90
19389;DHT22;9830;41.876;23.474;2022-08-11T19:55:50;16.60;99.90
19389;DHT22;9830;41.876;23.474;2022-08-11T19:58:35;16.60;99.90
19389;DHT22;9830;41.876;23.474;2022-08-11T20:01:20;16.60;99.90
19389;DHT22;9830;41.876;23.474;2022-08-11T20:04:05;16.60;99.90
19389;DHT22;9830;41.876;23.474;2022-08-11T20:06:51;16.50;99.90
19389;DHT22;9830;41.876;23.474;2022-08-11T20:09:36;16.50;99.90
19389;DHT22;9830;41.876;23.474;2022-08-11T20:12:23;16.50;99.90
19389;DHT22;9830;41.876;23.474;2022-08-11T20:15:10;16.40;99.90
19389;DHT22;9830;41.876;23.474;2022-08-11T20:17:55;16.40;99.90
19389;DHT22;9830;41.876;23.474;2022-08-11T20:20:40;16.40;99.90
19389;DHT22;9830;41.876;23.474;2022-08-11T20:23:25;16.40;99.90
19389;DHT22;9830;41.876;23.474;2022-08-11T20:26:10;16.40;99.90
19389;DHT22;9830;41.876;23.474;2022-08-11T20:28:55;16.50;99.90
19389;DHT22;9830;41.876;23.474;2022-08-11T20:31:40;16.50;99.90
19389;DHT22;9830;41.876;23.474;2022-08-11T20:34:25;16.40;99.90
19389;DHT22;9830;41.876;23.474;2022-08-11T20:37:11;16.40;99.90
19389;DHT22;9830;41.876;23.474;2022-08-11T20:39:56;16.40;99.90
19389;DHT22;9830;41.876;23.474;2022-08-11T20:42:42;16.50;99.90
19389;DHT22;9830;41.876;23.474;2022-08-11T20:45:28;16.50;99.90
19389;DHT22;9830;41.876;23.474;2022-08-11T20:48:15;16.60;99.90
19389;DHT22;9830;41.876;23.474;2022-08-11T20:51:01;16.60;99.90
19389;DHT22;9830;41.876;23.474;2022-08-11T20:53:46;16.60;99.90
19389;DHT22;9830;41.876;23.474;2022-08-11T20:56:33;16.50;99.90
19389;DHT22;9830;41.876;23.474;2022-08-11T20:59:20;16.60;99.90
19389;DHT22;9830;41.876;23.474;2022-08-11T21:02:05;16.70;99.90
19389;DHT22;9830;41.876;23.474;2022-08-11T21:04:50;16.70;99.90
19389;DHT22;9830;41.876;23.474;2022-08-11T21:07:37;16.70;99.90
19389;DHT22;9830;41.876;23.474;2022-08-11T21:10:23;16.80;99.90
19389;DHT22;9830;41.876;23.474;2022-08-11T21:13:09;16.80;99.90